sensor_id;sensor_type;location;lat;lon;timestamp;P1;durP1;ratioP1;P2;durP2;ratioP2
25091;SDS011;13082;52.374;4.946;2022-11-15T00:00:46;47.00;;;20.97;;
25091;SDS011;13082;52.374;4.946;2022-11-15T00:03:22;45.83;;;20.53;;
25091;SDS011;13082;52.374;4.946;2022-11-15T00:05:49;52.57;;;20.53;;
25091;SDS011;13082;52.374;4.946;2022-11-15T00:08:15;49.27;;;19.57;;
25091;SDS011;13082;52.374;4.946;2022-11-15T00:10:40;49.83;;;23.10;;
25091;SDS011;13082;52.374;4.946;2022-11-15T00:13:07;41.30;;;20.83;;
25091;SDS011;13082;52.374;4.946;2022-11-15T00:15:37;57.57;;;25.50;;
25091;SDS011;13082;52.374;4.946;2022-11-15T00:18:04;51.90;;;21.37;;
25091;SDS011;13082;52.374;4.946;2022-11-15T00:20:31;52.17;;;24.07;;
25091;SDS011;13082;52.374;4.946;2022-11-15T00:22:58;52.87;;;22.57;;
25091;SDS011;13082;52.374;4.946;2022-11-15T00:25:24;53.50;;;23.27;;
25091;SDS011;13082;52.374;4.946;2022-11-15T00:27:50;50.17;;;23.63;;
25091;SDS011;13082;52.374;4.946;2022-11-15T00:30:19;51.33;;;22.87;;
25091;SDS011;13082;52.374;4.946;2022-11-15T00:32:45;56.10;;;23.27;;
25091;SDS011;13082;52.374;4.946;2022-11-15T00:35:10;47.30;;;21.83;;
25091;SDS011;13082;52.374;4.946;2022-11-15T00:37:36;51.23;;;23.00;;
25091;SDS011;13082;52.374;4.946;2022-11-15T00:40:01;51.73;;;22.03;;
25091;SDS011;13082;52.374;4.946;2022-11-15T00:42:27;51.50;;;21.20;;
25091;SDS011;13082;52.374;4.946;2022-11-15T00:44:52;59.47;;;23.63;;
25091;SDS011;13082;52.374;4.946;2022-11-15T00:47:18;56.00;;;23.10;;
25091;SDS011;13082;52.374;4.946;2022-11-15T00:49:43;57.73;;;22.43;;
25091;SDS011;13082;52.374;4.946;2022-11-15T00:52:09;49.50;;;22.10;;
25091;SDS011;13082;52.374;4.946;2022-11-15T00:54:35;48.07;;;20.67;;
25091;SDS011;13082;52.374;4.946;2022-11-15T00:57:00;51.40;;;21.93;;
25091;SDS011;13082;52.374;4.946;2022-11-15T00:59:26;57.60;;;22.53;;
25091;SDS011;13082;52.374;4.946;2022-11-15T01:01:51;45.13;;;19.90;;
25091;SDS011;13082;52.374;4.946;2022-11-15T01:04:17;46.40;;;20.77;;
25091;SDS011;13082;52.374;4.946;2022-11-15T01:06:42;51.87;;;22.23;;
25091;SDS011;13082;52.374;4.946;2022-11-15T01:09:08;56.43;;;21.97;;
25091;SDS011;13082;52.374;4.946;2022-11-15T01:11:34;50.40;;;21.20;;
25091;SDS011;13082;52.374;4.946;2022-11-15T01:13:59;55.13;;;22.37;;
25091;SDS011;13082;52.374;4.946;2022-11-15T01:16:25;44.90;;;19.60;;
25091;SDS011;13082;52.374;4.946;2022-11-15T01:18:51;60.87;;;21.80;;
25091;SDS011;13082;52.374;4.946;2022-11-15T01:21:17;52.93;;;21.77;;
25091;SDS011;13082;52.374;4.946;2022-11-15T01:23:43;60.37;;;20.90;;
25091;SDS011;13082;52.374;4.946;2022-11-15T01:26:10;55.33;;;22.20;;
25091;SDS011;13082;52.374;4.946;2022-11-15T01:28:39;49.63;;;21.40;;
25091;SDS011;13082;52.374;4.946;2022-11-15T01:31:08;50.83;;;21.57;;
25091;SDS011;13082;52.374;4.946;2022-11-15T01:33:40;48.73;;;21.67;;
25091;SDS011;13082;52.374;4.946;2022-11-15T01:36:07;56.03;;;22.30;;
25091;SDS011;13082;52.374;4.946;2022-11-15T01:38:35;57.50;;;22.07;;
25091;SDS011;13082;52.374;4.946;2022-11-15T01:41:01;53.97;;;21.60;;
25091;SDS011;13082;52.374;4.946;2022-11-15T01:43:31;46.87;;;20.40;;
25091;SDS011;13082;52.374;4.946;2022-11-15T01:48:34;57.73;;;21.77;;
25091;SDS011;13082;52.374;4.946;2022-11-15T01:51:00;55.77;;;21.67;;
25091;SDS011;13082;52.374;4.946;2022-11-15T01:53:30;56.30;;;21.73;;
25091;SDS011;13082;52.374;4.946;2022-11-15T01:55:58;59.37;;;22.47;;
25091;SDS011;13082;52.374;4.946;2022-11-15T01:58:27;59.67;;;21.60;;
25091;SDS011;13082;52.374;4.946;2022-11-15T02:00:52;61.47;;;22.10;;
25091;SDS011;13082;52.374;4.946;2022-11-15T02:03:18;59.97;;;22.60;;
25091;SDS011;13082;52.374;4.946;2022-11-15T02:05:46;56.77;;;22.40;;
25091;SDS011;13082;52.374;4.946;2022-11-15T02:08:12;60.13;;;22.73;;
25091;SDS011;13082;52.374;4.946;2022-11-15T02:10:45;65.83;;;23.27;;
25091;SDS011;13082;52.374;4.946;2022-11-15T02:13:12;59.37;;;23.07;;
25091;SDS011;13082;52.374;4.946;2022-11-15T02:15:52;66.23;;;22.87;;
25091;SDS011;13082;52.374;4.946;2022-11-15T02:18:26;60.77;;;23.77;;
25091;SDS011;13082;52.374;4.946;2022-11-15T02:20:59;57.83;;;23.87;;
25091;SDS011;13082;52.374;4.946;2022-11-15T02:32:19;61.27;;;25.57;;
25091;SDS011;13082;52.374;4.946;2022-11-15T02:39:44;61.63;;;24.97;;
25091;SDS011;13082;52.374;4.946;2022-11-15T02:42:23;72.13;;;25.57;;
25091;SDS011;13082;52.374;4.946;2022-11-15T02:45:11;66.93;;;24.30;;
25091;SDS011;13082;52.374;4.946;2022-11-15T02:47:43;67.47;;;24.20;;
25091;SDS011;13082;52.374;4.946;2022-11-15T02:50:11;77.23;;;24.80;;
25091;SDS011;13082;52.374;4.946;2022-11-15T02:52:40;67.43;;;27.20;;
25091;SDS011;13082;52.374;4.946;2022-11-15T02:57:59;66.47;;;25.43;;
25091;SDS011;13082;52.374;4.946;2022-11-15T03:00:48;77.83;;;26.70;;
25091;SDS011;13082;52.374;4.946;2022-11-15T03:03:42;67.50;;;27.17;;
25091;SDS011;13082;52.374;4.946;2022-11-15T03:09:02;69.10;;;26.03;;
25091;SDS011;13082;52.374;4.946;2022-11-15T03:11:49;69.60;;;27.33;;
25091;SDS011;13082;52.374;4.946;2022-11-15T03:14:35;65.20;;;25.90;;
25091;SDS011;13082;52.374;4.946;2022-11-15T03:17:16;70.00;;;27.93;;
25091;SDS011;13082;52.374;4.946;2022-11-15T03:19:55;69.87;;;26.67;;
25091;SDS011;13082;52.374;4.946;2022-11-15T03:22:24;72.70;;;26.70;;
25091;SDS011;13082;52.374;4.946;2022-11-15T03:25:02;71.80;;;27.93;;
25091;SDS011;13082;52.374;4.946;2022-11-15T03:27:33;77.47;;;25.70;;
25091;SDS011;13082;52.374;4.946;2022-11-15T03:30:06;68.37;;;28.60;;
25091;SDS011;13082;52.374;4.946;2022-11-15T03:32:37;69.93;;;27.70;;
25091;SDS011;13082;52.374;4.946;2022-11-15T03:35:14;70.60;;;27.77;;
25091;SDS011;13082;52.374;4.946;2022-11-15T03:40:59;73.37;;;26.63;;
25091;SDS011;13082;52.374;4.946;2022-11-15T03:43:44;68.83;;;26.87;;
25091;SDS011;13082;52.374;4.946;2022-11-15T03:46:25;77.63;;;28.07;;
25091;SDS011;13082;52.374;4.946;2022-11-15T03:49:19;71.53;;;29.07;;
25091;SDS011;13082;52.374;4.946;2022-11-15T03:51:50;70.53;;;28.00;;
25091;SDS011;13082;52.374;4.946;2022-11-15T03:54:16;76.87;;;28.33;;
25091;SDS011;13082;52.374;4.946;2022-11-15T03:56:41;68.93;;;26.87;;
25091;SDS011;13082;52.374;4.946;2022-11-15T03:59:07;75.83;;;29.07;;
25091;SDS011;13082;52.374;4.946;2022-11-15T04:01:33;76.13;;;27.73;;
25091;SDS011;13082;52.374;4.946;2022-11-15T04:03:58;68.77;;;29.00;;
25091;SDS011;13082;52.374;4.946;2022-11-15T04:06:24;70.30;;;28.20;;
25091;SDS011;13082;52.374;4.946;2022-11-15T04:08:49;77.40;;;27.73;;
25091;SDS011;13082;52.374;4.946;2022-11-15T04:11:15;70.93;;;28.17;;
25091;SDS011;13082;52.374;4.946;2022-11-15T04:13:40;84.37;;;28.43;;
25091;SDS011;13082;52.374;4.946;2022-11-15T04:16:06;65.17;;;24.77;;
25091;SDS011;13082;52.374;4.946;2022-11-15T04:18:31;66.20;;;28.63;;
25091;SDS011;13082;52.374;4.946;2022-11-15T04:20:57;74.17;;;26.10;;
25091;SDS011;13082;52.374;4.946;2022-11-15T04:23:41;68.67;;;27.70;;
25091;SDS011;13082;52.374;4.946;2022-11-15T04:26:32;72.00;;;26.70;;
25091;SDS011;13082;52.374;4.946;2022-11-15T04:28:58;61.50;;;25.67;;
25091;SDS011;13082;52.374;4.946;2022-11-15T04:31:42;62.90;;;25.33;;
25091;SDS011;13082;52.374;4.946;2022-11-15T04:34:08;63.47;;;26.50;;
25091;SDS011;13082;52.374;4.946;2022-11-15T04:36:33;54.77;;;25.87;;
25091;SDS011;13082;52.374;4.946;2022-11-15T04:39:17;56.33;;;25.30;;
25091;SDS011;13082;52.374;4.946;2022-11-15T04:41:43;67.17;;;25.90;;
25091;SDS011;13082;52.374;4.946;2022-11-15T04:44:08;60.73;;;26.13;;
25091;SDS011;13082;52.374;4.946;2022-11-15T04:46:34;56.67;;;26.73;;
25091;SDS011;13082;52.374;4.946;2022-11-15T04:49:00;65.93;;;26.67;;
25091;SDS011;13082;52.374;4.946;2022-11-15T04:51:25;57.50;;;26.50;;
25091;SDS011;13082;52.374;4.946;2022-11-15T04:53:51;54.90;;;24.10;;
25091;SDS011;13082;52.374;4.946;2022-11-15T04:56:17;56.20;;;26.23;;
25091;SDS011;13082;52.374;4.946;2022-11-15T04:58:43;54.47;;;24.70;;
25091;SDS011;13082;52.374;4.946;2022-11-15T05:01:09;53.83;;;24.53;;
25091;SDS011;13082;52.374;4.946;2022-11-15T05:03:35;53.97;;;24.90;;
25091;SDS011;13082;52.374;4.946;2022-11-15T05:06:20;55.37;;;25.70;;
25091;SDS011;13082;52.374;4.946;2022-11-15T05:08:45;53.17;;;23.87;;
25091;SDS011;13082;52.374;4.946;2022-11-15T05:11:11;47.60;;;22.10;;
25091;SDS011;13082;52.374;4.946;2022-11-15T05:13:36;49.57;;;24.37;;
25091;SDS011;13082;52.374;4.946;2022-11-15T05:16:02;48.20;;;24.43;;
25091;SDS011;13082;52.374;4.946;2022-11-15T05:18:28;49.17;;;23.87;;
25091;SDS011;13082;52.374;4.946;2022-11-15T05:20:53;47.07;;;23.93;;
25091;SDS011;13082;52.374;4.946;2022-11-15T05:23:19;48.00;;;23.37;;
25091;SDS011;13082;52.374;4.946;2022-11-15T05:25:44;54.87;;;23.60;;
25091;SDS011;13082;52.374;4.946;2022-11-15T05:28:10;45.23;;;23.00;;
25091;SDS011;13082;52.374;4.946;2022-11-15T05:30:35;46.37;;;21.50;;
25091;SDS011;13082;52.374;4.946;2022-11-15T05:33:01;45.83;;;23.47;;
25091;SDS011;13082;52.374;4.946;2022-11-15T05:35:31;51.17;;;23.37;;
25091;SDS011;13082;52.374;4.946;2022-11-15T05:38:01;49.30;;;23.30;;
25091;SDS011;13082;52.374;4.946;2022-11-15T05:40:26;43.33;;;22.77;;
25091;SDS011;13082;52.374;4.946;2022-11-15T05:42:54;42.47;;;22.53;;
25091;SDS011;13082;52.374;4.946;2022-11-15T05:45:19;45.03;;;22.93;;
25091;SDS011;13082;52.374;4.946;2022-11-15T05:47:45;39.27;;;21.83;;
25091;SDS011;13082;52.374;4.946;2022-11-15T05:50:12;49.13;;;22.00;;
25091;SDS011;13082;52.374;4.946;2022-11-15T05:52:41;37.50;;;20.13;;
25091;SDS011;13082;52.374;4.946;2022-11-15T05:55:07;45.17;;;20.67;;
25091;SDS011;13082;52.374;4.946;2022-11-15T05:57:34;35.93;;;20.63;;
25091;SDS011;13082;52.374;4.946;2022-11-15T06:00:00;39.37;;;20.97;;
25091;SDS011;13082;52.374;4.946;2022-11-15T06:02:27;38.60;;;20.97;;
25091;SDS011;13082;52.374;4.946;2022-11-15T06:04:53;41.00;;;21.70;;
25091;SDS011;13082;52.374;4.946;2022-11-15T06:07:18;42.37;;;22.00;;
25091;SDS011;13082;52.374;4.946;2022-11-15T06:09:44;38.20;;;21.83;;
25091;SDS011;13082;52.374;4.946;2022-11-15T06:12:10;42.13;;;20.70;;
25091;SDS011;13082;52.374;4.946;2022-11-15T06:14:35;36.63;;;20.43;;
25091;SDS011;13082;52.374;4.946;2022-11-15T06:17:01;38.20;;;20.80;;
25091;SDS011;13082;52.374;4.946;2022-11-15T06:19:27;37.33;;;19.57;;
25091;SDS011;13082;52.374;4.946;2022-11-15T06:21:57;36.07;;;20.33;;
25091;SDS011;13082;52.374;4.946;2022-11-15T06:24:26;35.43;;;20.53;;
25091;SDS011;13082;52.374;4.946;2022-11-15T06:26:51;34.93;;;18.73;;
25091;SDS011;13082;52.374;4.946;2022-11-15T06:29:17;39.30;;;21.07;;
25091;SDS011;13082;52.374;4.946;2022-11-15T06:31:43;34.70;;;19.83;;
25091;SDS011;13082;52.374;4.946;2022-11-15T06:34:08;37.73;;;20.93;;
25091;SDS011;13082;52.374;4.946;2022-11-15T06:36:34;31.83;;;19.27;;
25091;SDS011;13082;52.374;4.946;2022-11-15T06:39:01;38.73;;;19.57;;
25091;SDS011;13082;52.374;4.946;2022-11-15T06:41:28;31.20;;;18.33;;
25091;SDS011;13082;52.374;4.946;2022-11-15T06:43:53;37.57;;;19.53;;
25091;SDS011;13082;52.374;4.946;2022-11-15T06:46:19;34.63;;;17.60;;
25091;SDS011;13082;52.374;4.946;2022-11-15T06:48:44;36.73;;;19.40;;
25091;SDS011;13082;52.374;4.946;2022-11-15T06:51:10;32.43;;;18.57;;
25091;SDS011;13082;52.374;4.946;2022-11-15T06:53:35;34.93;;;19.77;;
25091;SDS011;13082;52.374;4.946;2022-11-15T06:56:04;33.83;;;18.57;;
25091;SDS011;13082;52.374;4.946;2022-11-15T06:58:31;34.67;;;18.40;;
25091;SDS011;13082;52.374;4.946;2022-11-15T07:01:03;31.63;;;17.70;;
25091;SDS011;13082;52.374;4.946;2022-11-15T07:03:36;36.20;;;18.00;;
25091;SDS011;13082;52.374;4.946;2022-11-15T07:06:03;32.97;;;17.10;;
25091;SDS011;13082;52.374;4.946;2022-11-15T07:08:29;31.30;;;18.10;;
25091;SDS011;13082;52.374;4.946;2022-11-15T07:10:58;30.97;;;16.50;;
25091;SDS011;13082;52.374;4.946;2022-11-15T07:13:29;30.93;;;17.17;;
25091;SDS011;13082;52.374;4.946;2022-11-15T07:16:05;29.00;;;16.87;;
25091;SDS011;13082;52.374;4.946;2022-11-15T07:18:36;30.77;;;16.20;;
25091;SDS011;13082;52.374;4.946;2022-11-15T07:21:03;32.27;;;16.80;;
25091;SDS011;13082;52.374;4.946;2022-11-15T07:23:29;31.93;;;17.60;;
25091;SDS011;13082;52.374;4.946;2022-11-15T07:25:58;28.00;;;15.90;;
25091;SDS011;13082;52.374;4.946;2022-11-15T07:28:25;28.20;;;16.07;;
25091;SDS011;13082;52.374;4.946;2022-11-15T07:30:51;28.17;;;16.40;;
25091;SDS011;13082;52.374;4.946;2022-11-15T07:33:18;24.80;;;15.27;;
25091;SDS011;13082;52.374;4.946;2022-11-15T07:35:44;27.70;;;15.63;;
25091;SDS011;13082;52.374;4.946;2022-11-15T07:38:13;26.47;;;15.27;;
25091;SDS011;13082;52.374;4.946;2022-11-15T07:40:40;23.93;;;14.57;;
25091;SDS011;13082;52.374;4.946;2022-11-15T07:43:06;27.17;;;15.40;;
25091;SDS011;13082;52.374;4.946;2022-11-15T07:45:32;25.37;;;14.67;;
25091;SDS011;13082;52.374;4.946;2022-11-15T07:47:59;30.50;;;14.90;;
25091;SDS011;13082;52.374;4.946;2022-11-15T07:50:25;28.40;;;15.30;;
25091;SDS011;13082;52.374;4.946;2022-11-15T07:52:58;23.70;;;14.87;;
25091;SDS011;13082;52.374;4.946;2022-11-15T07:55:25;26.80;;;14.40;;
25091;SDS011;13082;52.374;4.946;2022-11-15T07:57:52;21.57;;;12.80;;
25091;SDS011;13082;52.374;4.946;2022-11-15T08:00:24;28.70;;;13.73;;
25091;SDS011;13082;52.374;4.946;2022-11-15T08:02:50;22.03;;;13.40;;
25091;SDS011;13082;52.374;4.946;2022-11-15T08:05:15;32.23;;;14.50;;
25091;SDS011;13082;52.374;4.946;2022-11-15T08:07:41;19.27;;;12.30;;
25091;SDS011;13082;52.374;4.946;2022-11-15T08:10:07;27.23;;;13.63;;
25091;SDS011;13082;52.374;4.946;2022-11-15T08:12:33;22.77;;;12.17;;
25091;SDS011;13082;52.374;4.946;2022-11-15T08:14:59;25.90;;;12.33;;
25091;SDS011;13082;52.374;4.946;2022-11-15T08:17:24;21.60;;;11.90;;
25091;SDS011;13082;52.374;4.946;2022-11-15T08:19:50;17.80;;;12.47;;
25091;SDS011;13082;52.374;4.946;2022-11-15T08:22:16;22.77;;;12.50;;
25091;SDS011;13082;52.374;4.946;2022-11-15T08:24:43;22.37;;;12.10;;
25091;SDS011;13082;52.374;4.946;2022-11-15T08:27:09;20.60;;;12.00;;
25091;SDS011;13082;52.374;4.946;2022-11-15T08:29:40;23.67;;;11.50;;
25091;SDS011;13082;52.374;4.946;2022-11-15T08:32:10;22.87;;;13.63;;
25091;SDS011;13082;52.374;4.946;2022-11-15T08:34:36;19.53;;;12.17;;
25091;SDS011;13082;52.374;4.946;2022-11-15T08:37:03;21.50;;;13.07;;
25091;SDS011;13082;52.374;4.946;2022-11-15T08:39:29;16.67;;;10.87;;
25091;SDS011;13082;52.374;4.946;2022-11-15T08:41:54;24.40;;;12.00;;
25091;SDS011;13082;52.374;4.946;2022-11-15T08:44:20;18.93;;;11.63;;
25091;SDS011;13082;52.374;4.946;2022-11-15T08:46:46;20.20;;;11.30;;
25091;SDS011;13082;52.374;4.946;2022-11-15T08:49:11;22.80;;;11.20;;
25091;SDS011;13082;52.374;4.946;2022-11-15T08:51:37;23.83;;;10.23;;
25091;SDS011;13082;52.374;4.946;2022-11-15T08:54:03;16.73;;;10.07;;
25091;SDS011;13082;52.374;4.946;2022-11-15T08:56:28;13.77;;;9.50;;
25091;SDS011;13082;52.374;4.946;2022-11-15T08:58:54;15.63;;;10.43;;
25091;SDS011;13082;52.374;4.946;2022-11-15T09:01:22;16.57;;;9.97;;
25091;SDS011;13082;52.374;4.946;2022-11-15T09:03:47;15.70;;;9.53;;
25091;SDS011;13082;52.374;4.946;2022-11-15T09:06:13;19.77;;;9.07;;
25091;SDS011;13082;52.374;4.946;2022-11-15T09:08:39;17.40;;;9.57;;
25091;SDS011;13082;52.374;4.946;2022-11-15T09:11:06;15.00;;;8.60;;
25091;SDS011;13082;52.374;4.946;2022-11-15T09:13:34;11.67;;;8.73;;
25091;SDS011;13082;52.374;4.946;2022-11-15T09:16:01;15.37;;;9.20;;
25091;SDS011;13082;52.374;4.946;2022-11-15T09:18:28;14.10;;;7.80;;
25091;SDS011;13082;52.374;4.946;2022-11-15T09:20:55;15.20;;;8.30;;
25091;SDS011;13082;52.374;4.946;2022-11-15T09:23:22;10.73;;;7.40;;
25091;SDS011;13082;52.374;4.946;2022-11-15T09:25:48;10.70;;;7.20;;
25091;SDS011;13082;52.374;4.946;2022-11-15T09:28:14;15.70;;;6.57;;
25091;SDS011;13082;52.374;4.946;2022-11-15T09:30:39;7.57;;;5.60;;
25091;SDS011;13082;52.374;4.946;2022-11-15T09:33:08;8.00;;;5.87;;
25091;SDS011;13082;52.374;4.946;2022-11-15T09:35:35;12.43;;;6.50;;
25091;SDS011;13082;52.374;4.946;2022-11-15T09:38:00;9.83;;;6.30;;
25091;SDS011;13082;52.374;4.946;2022-11-15T09:40:27;8.37;;;5.67;;
25091;SDS011;13082;52.374;4.946;2022-11-15T09:45:34;9.33;;;6.00;;
25091;SDS011;13082;52.374;4.946;2022-11-15T09:50:57;8.93;;;5.87;;
25091;SDS011;13082;52.374;4.946;2022-11-15T09:56:01;14.03;;;6.27;;
25091;SDS011;13082;52.374;4.946;2022-11-15T10:04:44;7.53;;;5.27;;
25091;SDS011;13082;52.374;4.946;2022-11-15T10:07:20;8.33;;;5.83;;
25091;SDS011;13082;52.374;4.946;2022-11-15T10:09:54;8.00;;;5.20;;
25091;SDS011;13082;52.374;4.946;2022-11-15T10:12:27;8.63;;;5.23;;
25091;SDS011;13082;52.374;4.946;2022-11-15T10:15:08;6.77;;;5.23;;
25091;SDS011;13082;52.374;4.946;2022-11-15T10:20:22;7.20;;;5.03;;
25091;SDS011;13082;52.374;4.946;2022-11-15T10:22:59;7.60;;;4.90;;
25091;SDS011;13082;52.374;4.946;2022-11-15T10:28:01;8.37;;;4.40;;
25091;SDS011;13082;52.374;4.946;2022-11-15T10:30:42;9.50;;;4.07;;
25091;SDS011;13082;52.374;4.946;2022-11-15T10:35:43;8.67;;;5.03;;
25091;SDS011;13082;52.374;4.946;2022-11-15T10:38:10;5.60;;;4.30;;
25091;SDS011;13082;52.374;4.946;2022-11-15T10:40:37;8.30;;;4.40;;
25091;SDS011;13082;52.374;4.946;2022-11-15T10:45:36;11.03;;;4.00;;
25091;SDS011;13082;52.374;4.946;2022-11-15T10:50:37;6.80;;;4.27;;
25091;SDS011;13082;52.374;4.946;2022-11-15T10:53:32;4.00;;;3.60;;
25091;SDS011;13082;52.374;4.946;2022-11-15T10:56:07;7.97;;;4.27;;
25091;SDS011;13082;52.374;4.946;2022-11-15T11:01:22;8.27;;;4.27;;
25091;SDS011;13082;52.374;4.946;2022-11-15T11:04:03;6.13;;;3.40;;
25091;SDS011;13082;52.374;4.946;2022-11-15T11:06:30;6.47;;;3.63;;
25091;SDS011;13082;52.374;4.946;2022-11-15T11:09:18;5.10;;;3.00;;
25091;SDS011;13082;52.374;4.946;2022-11-15T11:11:47;6.00;;;3.10;;
25091;SDS011;13082;52.374;4.946;2022-11-15T11:14:21;4.53;;;3.20;;
25091;SDS011;13082;52.374;4.946;2022-11-15T11:22:29;5.57;;;3.03;;
25091;SDS011;13082;52.374;4.946;2022-11-15T11:35:13;6.00;;;2.90;;
25091;SDS011;13082;52.374;4.946;2022-11-15T11:37:52;5.00;;;2.73;;
25091;SDS011;13082;52.374;4.946;2022-11-15T11:40:32;6.60;;;2.57;;
25091;SDS011;13082;52.374;4.946;2022-11-15T11:48:56;5.27;;;2.67;;
25091;SDS011;13082;52.374;4.946;2022-11-15T11:51:28;6.03;;;2.40;;
25091;SDS011;13082;52.374;4.946;2022-11-15T11:54:11;2.33;;;2.13;;
25091;SDS011;13082;52.374;4.946;2022-11-15T11:56:43;6.27;;;2.87;;
25091;SDS011;13082;52.374;4.946;2022-11-15T11:59:25;3.67;;;2.10;;
25091;SDS011;13082;52.374;4.946;2022-11-15T12:02:48;4.60;;;1.80;;
25091;SDS011;13082;52.374;4.946;2022-11-15T12:04:57;3.23;;;1.93;;
25091;SDS011;13082;52.374;4.946;2022-11-15T12:07:33;4.17;;;1.90;;
25091;SDS011;13082;52.374;4.946;2022-11-15T12:10:05;1.83;;;1.50;;
25091;SDS011;13082;52.374;4.946;2022-11-15T12:12:58;3.33;;;1.73;;
25091;SDS011;13082;52.374;4.946;2022-11-15T12:15:33;2.20;;;1.53;;
25091;SDS011;13082;52.374;4.946;2022-11-15T12:18:08;5.73;;;1.63;;
25091;SDS011;13082;52.374;4.946;2022-11-15T12:20:40;4.80;;;1.90;;
25091;SDS011;13082;52.374;4.946;2022-11-15T12:23:23;5.13;;;1.50;;
25091;SDS011;13082;52.374;4.946;2022-11-15T12:28:34;2.80;;;1.40;;
25091;SDS011;13082;52.374;4.946;2022-11-15T12:31:21;8.00;;;1.77;;
25091;SDS011;13082;52.374;4.946;2022-11-15T12:34:01;3.53;;;1.30;;
25091;SDS011;13082;52.374;4.946;2022-11-15T12:39:06;3.90;;;1.33;;
25091;SDS011;13082;52.374;4.946;2022-11-15T12:41:37;9.57;;;2.30;;
25091;SDS011;13082;52.374;4.946;2022-11-15T12:44:05;1.60;;;1.30;;
25091;SDS011;13082;52.374;4.946;2022-11-15T13:02:27;5.73;;;1.57;;
25091;SDS011;13082;52.374;4.946;2022-11-15T13:22:39;6.27;;;1.50;;
25091;SDS011;13082;52.374;4.946;2022-11-15T13:25:27;3.03;;;1.57;;
25091;SDS011;13082;52.374;4.946;2022-11-15T13:27:56;6.97;;;1.23;;
25091;SDS011;13082;52.374;4.946;2022-11-15T13:30:23;2.83;;;1.13;;
25091;SDS011;13082;52.374;4.946;2022-11-15T13:32:51;2.43;;;1.27;;
25091;SDS011;13082;52.374;4.946;2022-11-15T13:35:22;1.37;;;1.27;;
25091;SDS011;13082;52.374;4.946;2022-11-15T13:37:50;3.93;;;1.90;;
25091;SDS011;13082;52.374;4.946;2022-11-15T13:42:42;7.30;;;1.80;;
25091;SDS011;13082;52.374;4.946;2022-11-15T13:45:12;6.30;;;1.47;;
25091;SDS011;13082;52.374;4.946;2022-11-15T13:47:39;1.83;;;1.53;;
25091;SDS011;13082;52.374;4.946;2022-11-15T13:50:05;4.90;;;1.20;;
25091;SDS011;13082;52.374;4.946;2022-11-15T13:52:33;3.33;;;1.20;;
25091;SDS011;13082;52.374;4.946;2022-11-15T13:55:02;4.37;;;1.33;;
25091;SDS011;13082;52.374;4.946;2022-11-15T13:57:41;3.03;;;1.10;;
25091;SDS011;13082;52.374;4.946;2022-11-15T14:00:24;3.27;;;1.20;;
25091;SDS011;13082;52.374;4.946;2022-11-15T14:08:36;4.20;;;1.30;;
25091;SDS011;13082;52.374;4.946;2022-11-15T14:11:07;4.30;;;1.50;;
25091;SDS011;13082;52.374;4.946;2022-11-15T14:19:01;2.40;;;1.20;;
25091;SDS011;13082;52.374;4.946;2022-11-15T14:21:28;2.90;;;1.17;;
25091;SDS011;13082;52.374;4.946;2022-11-15T14:24:13;2.90;;;1.20;;
25091;SDS011;13082;52.374;4.946;2022-11-15T14:26:43;4.23;;;1.43;;
25091;SDS011;13082;52.374;4.946;2022-11-15T14:29:28;3.43;;;1.37;;
25091;SDS011;13082;52.374;4.946;2022-11-15T14:32:14;3.13;;;1.47;;
25091;SDS011;13082;52.374;4.946;2022-11-15T14:34:45;7.70;;;1.87;;
25091;SDS011;13082;52.374;4.946;2022-11-15T14:37:18;5.87;;;1.20;;
25091;SDS011;13082;52.374;4.946;2022-11-15T14:39:56;3.83;;;1.40;;
25091;SDS011;13082;52.374;4.946;2022-11-15T14:42:22;3.60;;;1.50;;
25091;SDS011;13082;52.374;4.946;2022-11-15T14:44:48;1.23;;;1.10;;
25091;SDS011;13082;52.374;4.946;2022-11-15T14:47:14;3.03;;;1.60;;
25091;SDS011;13082;52.374;4.946;2022-11-15T14:49:40;2.30;;;1.10;;
25091;SDS011;13082;52.374;4.946;2022-11-15T14:54:55;1.70;;;1.53;;
25091;SDS011;13082;52.374;4.946;2022-11-15T14:57:21;2.87;;;1.40;;
25091;SDS011;13082;52.374;4.946;2022-11-15T14:59:47;2.87;;;1.53;;
25091;SDS011;13082;52.374;4.946;2022-11-15T15:02:20;4.10;;;1.47;;
25091;SDS011;13082;52.374;4.946;2022-11-15T15:04:47;4.20;;;1.40;;
25091;SDS011;13082;52.374;4.946;2022-11-15T15:07:14;2.70;;;1.37;;
25091;SDS011;13082;52.374;4.946;2022-11-15T15:09:40;8.97;;;1.90;;
25091;SDS011;13082;52.374;4.946;2022-11-15T15:12:14;3.97;;;1.60;;
25091;SDS011;13082;52.374;4.946;2022-11-15T15:14:45;1.37;;;1.27;;
25091;SDS011;13082;52.374;4.946;2022-11-15T15:17:11;4.50;;;1.70;;
25091;SDS011;13082;52.374;4.946;2022-11-15T15:19:37;1.60;;;1.50;;
25091;SDS011;13082;52.374;4.946;2022-11-15T15:22:03;1.50;;;1.40;;
25091;SDS011;13082;52.374;4.946;2022-11-15T15:24:29;5.10;;;1.70;;
25091;SDS011;13082;52.374;4.946;2022-11-15T15:26:55;5.73;;;2.03;;
25091;SDS011;13082;52.374;4.946;2022-11-15T15:29:20;1.20;;;1.10;;
25091;SDS011;13082;52.374;4.946;2022-11-15T15:31:46;1.30;;;1.20;;
25091;SDS011;13082;52.374;4.946;2022-11-15T15:34:11;5.40;;;1.73;;
25091;SDS011;13082;52.374;4.946;2022-11-15T15:36:37;2.60;;;1.50;;
25091;SDS011;13082;52.374;4.946;2022-11-15T15:39:03;2.20;;;1.30;;
25091;SDS011;13082;52.374;4.946;2022-11-15T15:41:28;4.37;;;1.50;;
25091;SDS011;13082;52.374;4.946;2022-11-15T15:43:54;7.50;;;1.63;;
25091;SDS011;13082;52.374;4.946;2022-11-15T15:46:19;3.33;;;1.27;;
25091;SDS011;13082;52.374;4.946;2022-11-15T15:48:45;1.67;;;1.30;;
25091;SDS011;13082;52.374;4.946;2022-11-15T15:51:11;3.87;;;1.63;;
25091;SDS011;13082;52.374;4.946;2022-11-15T15:53:37;4.77;;;2.10;;
25091;SDS011;13082;52.374;4.946;2022-11-15T15:56:03;2.80;;;1.50;;
25091;SDS011;13082;52.374;4.946;2022-11-15T15:58:29;2.50;;;1.37;;
25091;SDS011;13082;52.374;4.946;2022-11-15T16:00:56;5.03;;;1.50;;
25091;SDS011;13082;52.374;4.946;2022-11-15T16:03:22;4.50;;;1.40;;
25091;SDS011;13082;52.374;4.946;2022-11-15T16:05:49;2.50;;;1.47;;
25091;SDS011;13082;52.374;4.946;2022-11-15T16:08:18;3.47;;;1.50;;
25091;SDS011;13082;52.374;4.946;2022-11-15T16:10:46;4.73;;;1.50;;
25091;SDS011;13082;52.374;4.946;2022-11-15T16:13:12;2.70;;;1.30;;
25091;SDS011;13082;52.374;4.946;2022-11-15T16:15:37;2.87;;;1.20;;
25091;SDS011;13082;52.374;4.946;2022-11-15T16:18:03;3.13;;;1.40;;
25091;SDS011;13082;52.374;4.946;2022-11-15T16:20:39;4.83;;;1.40;;
25091;SDS011;13082;52.374;4.946;2022-11-15T16:23:14;2.93;;;1.20;;
25091;SDS011;13082;52.374;4.946;2022-11-15T16:28:14;3.50;;;1.40;;
25091;SDS011;13082;52.374;4.946;2022-11-15T16:30:43;1.37;;;1.10;;
25091;SDS011;13082;52.374;4.946;2022-11-15T16:33:09;1.17;;;1.07;;
25091;SDS011;13082;52.374;4.946;2022-11-15T16:35:34;2.03;;;1.07;;
25091;SDS011;13082;52.374;4.946;2022-11-15T16:38:00;2.10;;;1.27;;
25091;SDS011;13082;52.374;4.946;2022-11-15T16:40:30;6.77;;;1.60;;
25091;SDS011;13082;52.374;4.946;2022-11-15T16:42:58;2.97;;;1.47;;
25091;SDS011;13082;52.374;4.946;2022-11-15T16:45:24;1.40;;;1.30;;
25091;SDS011;13082;52.374;4.946;2022-11-15T16:47:53;3.57;;;1.30;;
25091;SDS011;13082;52.374;4.946;2022-11-15T16:50:26;4.90;;;1.70;;
25091;SDS011;13082;52.374;4.946;2022-11-15T16:52:54;4.40;;;1.20;;
25091;SDS011;13082;52.374;4.946;2022-11-15T16:55:21;2.07;;;1.20;;
25091;SDS011;13082;52.374;4.946;2022-11-15T16:57:48;2.10;;;1.10;;